createdAt,value
2023-01-29T00:00:16.395Z,9.40
2023-01-29T00:02:44.810Z,10.20
2023-01-29T00:05:27.007Z,8.90
2023-01-29T00:07:56.481Z,9.50
2023-01-29T00:10:25.363Z,9.00
2023-01-29T00:12:54.005Z,9.80
2023-01-29T00:15:22.106Z,9.70
2023-01-29T00:17:50.580Z,9.80
2023-01-29T00:20:19.282Z,9.40
2023-01-29T00:22:47.809Z,9.20
2023-01-29T00:25:16.082Z,9.20
2023-01-29T00:27:44.823Z,11.10
2023-01-29T00:30:13.364Z,10.00
2023-01-29T00:32:41.672Z,9.40
2023-01-29T00:35:10.030Z,9.60
2023-01-29T00:37:38.426Z,9.70
2023-01-29T00:40:07.524Z,10.40
2023-01-29T00:42:55.098Z,9.30
2023-01-29T00:45:23.699Z,9.60
2023-01-29T00:47:52.089Z,10.30
2023-01-29T00:50:20.560Z,9.10
2023-01-29T00:52:51.880Z,10.50
2023-01-29T00:55:20.072Z,9.10
2023-01-29T00:57:48.380Z,10.80
2023-01-29T01:00:18.647Z,10.10
2023-01-29T01:03:05.959Z,10.60
2023-01-29T01:05:35.316Z,10.50
2023-01-29T01:08:25.024Z,10.40
2023-01-29T01:11:02.091Z,10.50
2023-01-29T01:13:32.197Z,10.50
2023-01-29T01:16:00.475Z,9.90
2023-01-29T01:18:32.023Z,11.30
2023-01-29T01:21:00.311Z,10.90
2023-01-29T01:23:28.538Z,11.70
2023-01-29T01:25:56.792Z,12.80
2023-01-29T01:28:24.907Z,12.40
2023-01-29T01:30:53.191Z,12.40
2023-01-29T01:33:21.465Z,11.40
2023-01-29T01:35:49.761Z,11.70
2023-01-29T01:38:19.813Z,11.50
2023-01-29T01:40:47.887Z,12.20
2023-01-29T01:43:16.102Z,13.50
2023-01-29T01:45:46.743Z,13.60
2023-01-29T01:48:19.634Z,12.40
2023-01-29T01:50:56.892Z,12.50
2023-01-29T01:53:34.727Z,12.30
2023-01-29T01:56:07.962Z,12.00
2023-01-29T01:58:40.282Z,12.10
2023-01-29T02:01:08.575Z,12.40
2023-01-29T02:04:06.361Z,11.60
2023-01-29T02:06:53.960Z,11.80
2023-01-29T02:09:36.161Z,11.70
2023-01-29T02:12:07.585Z,11.90
2023-01-29T02:14:39.061Z,11.80
2023-01-29T02:17:08.550Z,11.60
2023-01-29T02:19:47.193Z,11.10
2023-01-29T02:22:43.784Z,11.80
2023-01-29T02:25:24.604Z,11.60
2023-01-29T02:28:15.464Z,11.10
2023-01-29T02:31:04.966Z,10.70
2023-01-29T02:33:47.267Z,11.50
2023-01-29T02:36:38.999Z,10.80
2023-01-29T02:39:07.088Z,10.50
2023-01-29T02:41:39.908Z,11.70
2023-01-29T02:44:31.292Z,10.90
2023-01-29T02:47:09.502Z,10.30
2023-01-29T02:49:49.940Z,10.40
2023-01-29T02:53:06.518Z,10.80
2023-01-29T02:55:58.217Z,11.10
2023-01-29T02:58:33.353Z,13.70
2023-01-29T03:01:10.064Z,13.00
2023-01-29T03:03:43.144Z,12.30
2023-01-29T03:08:54.408Z,12.30
2023-01-29T03:11:22.865Z,11.60
2023-01-29T03:14:04.777Z,12.00
2023-01-29T03:16:40.844Z,12.40
2023-01-29T03:21:59.195Z,12.20
2023-01-29T03:24:48.362Z,13.80
2023-01-29T03:27:37.053Z,11.00
2023-01-29T03:30:25.037Z,11.60
2023-01-29T03:32:58.955Z,11.10
2023-01-29T03:35:37.567Z,11.90
2023-01-29T03:38:10.025Z,11.50
2023-01-29T03:40:49.485Z,11.30
2023-01-29T03:43:50.204Z,11.40
2023-01-29T03:46:24.739Z,12.00
2023-01-29T03:48:52.957Z,12.10
2023-01-29T03:51:29.205Z,11.50
2023-01-29T03:54:26.541Z,12.20
2023-01-29T03:57:17.618Z,12.70
2023-01-29T03:59:52.052Z,12.40
2023-01-29T04:02:52.364Z,12.20
2023-01-29T04:05:23.246Z,13.30
2023-01-29T04:08:11.321Z,12.20
2023-01-29T04:13:10.887Z,11.40
2023-01-29T04:15:48.158Z,13.40
2023-01-29T04:18:16.326Z,11.60
2023-01-29T04:21:22.853Z,11.40
2023-01-29T04:23:51.141Z,12.00
2023-01-29T04:26:28.381Z,11.80
2023-01-29T04:29:00.009Z,12.30
2023-01-29T04:31:31.434Z,12.40
2023-01-29T04:34:18.065Z,14.00
2023-01-29T04:37:27.657Z,13.90
2023-01-29T04:40:02.280Z,11.50
2023-01-29T04:42:42.539Z,13.60
2023-01-29T04:45:19.060Z,13.40
2023-01-29T04:47:50.082Z,13.20
2023-01-29T04:50:23.355Z,12.60
2023-01-29T04:53:13.021Z,13.20
2023-01-29T04:55:44.447Z,12.70
2023-01-29T04:58:18.607Z,12.30
2023-01-29T05:03:16.330Z,11.50
2023-01-29T05:05:46.465Z,12.00
2023-01-29T05:08:17.139Z,12.40
2023-01-29T05:10:46.897Z,10.70
2023-01-29T05:13:15.102Z,12.20
2023-01-29T05:15:57.118Z,12.60
2023-01-29T05:18:25.448Z,12.00
2023-01-29T05:20:54.513Z,13.10
2023-01-29T05:23:22.712Z,12.00
2023-01-29T05:25:51.923Z,12.10
2023-01-29T05:28:21.058Z,14.40
2023-01-29T05:30:53.668Z,14.10
2023-01-29T05:33:26.936Z,15.10
2023-01-29T05:35:55.703Z,15.80
2023-01-29T05:38:24.003Z,14.70
2023-01-29T05:40:52.175Z,13.30
2023-01-29T05:43:26.033Z,13.40
2023-01-29T05:45:55.593Z,13.30
2023-01-29T05:48:23.995Z,13.10
2023-01-29T05:51:00.166Z,14.00
2023-01-29T05:53:30.478Z,13.10
2023-01-29T05:56:01.338Z,14.40
2023-01-29T05:58:41.067Z,13.40
2023-01-29T06:01:20.220Z,11.60
2023-01-29T06:03:50.738Z,13.20
2023-01-29T06:06:22.789Z,12.90
2023-01-29T06:08:56.448Z,12.70
2023-01-29T06:11:24.854Z,11.70
2023-01-29T06:13:53.921Z,13.40
2023-01-29T06:16:24.675Z,12.50
2023-01-29T06:18:54.502Z,14.20
2023-01-29T06:21:23.317Z,13.70
2023-01-29T06:23:56.842Z,13.10
2023-01-29T06:26:26.755Z,13.20
2023-01-29T06:28:54.988Z,14.40
2023-01-29T06:31:37.204Z,16.10
2023-01-29T06:34:08.184Z,13.90
2023-01-29T06:36:36.461Z,13.00
2023-01-29T06:39:05.051Z,15.30
2023-01-29T06:41:35.700Z,14.00
2023-01-29T06:44:04.117Z,15.40
2023-01-29T06:46:36.025Z,14.60
2023-01-29T06:49:08.383Z,15.70
2023-01-29T06:51:37.369Z,14.20
2023-01-29T06:54:08.779Z,16.10
2023-01-29T06:56:37.355Z,16.60
2023-01-29T06:59:07.498Z,14.20
2023-01-29T07:01:44.634Z,15.10
2023-01-29T07:04:12.946Z,15.50
2023-01-29T07:06:41.852Z,15.30
2023-01-29T07:09:16.368Z,14.20
2023-01-29T07:11:45.324Z,14.90
2023-01-29T07:14:14.263Z,14.10
2023-01-29T07:16:42.916Z,14.90
2023-01-29T07:19:11.151Z,14.70
2023-01-29T07:21:39.215Z,15.90
2023-01-29T07:24:07.540Z,15.90
2023-01-29T07:26:36.043Z,16.10
2023-01-29T07:29:05.262Z,16.30
2023-01-29T07:31:33.547Z,17.30
2023-01-29T07:34:01.847Z,16.60
2023-01-29T07:36:30.907Z,16.00
2023-01-29T07:38:59.113Z,17.50
2023-01-29T07:41:27.320Z,16.10
2023-01-29T07:43:56.436Z,16.50
2023-01-29T07:46:24.674Z,16.70
2023-01-29T07:48:56.453Z,15.40
2023-01-29T07:51:24.615Z,17.20
2023-01-29T07:53:53.518Z,16.70
2023-01-29T07:56:23.261Z,15.80
2023-01-29T07:58:51.334Z,17.30
2023-01-29T08:01:19.499Z,16.30
2023-01-29T08:03:48.948Z,16.00
2023-01-29T08:06:19.748Z,17.90
2023-01-29T08:08:48.276Z,15.40
2023-01-29T08:11:17.777Z,16.20
2023-01-29T08:13:46.800Z,15.60
2023-01-29T08:16:15.464Z,15.10
2023-01-29T08:18:49.880Z,14.90
2023-01-29T08:21:18.111Z,16.00
2023-01-29T08:23:46.236Z,18.00
2023-01-29T08:26:14.315Z,17.40
2023-01-29T08:28:43.090Z,18.60
2023-01-29T08:31:17.708Z,18.10
2023-01-29T08:33:50.928Z,16.20
2023-01-29T08:36:22.231Z,17.00
2023-01-29T08:38:50.365Z,17.30
2023-01-29T08:41:22.891Z,17.50
2023-01-29T08:43:53.527Z,16.40
2023-01-29T08:46:21.839Z,16.10
2023-01-29T08:48:50.068Z,17.40
2023-01-29T08:51:18.815Z,15.90
2023-01-29T08:53:50.029Z,16.40
2023-01-29T08:56:19.063Z,16.50
2023-01-29T08:58:47.403Z,16.60
2023-01-29T09:01:15.796Z,16.10
2023-01-29T09:03:44.825Z,16.30
2023-01-29T09:06:13.651Z,15.80
2023-01-29T09:08:43.646Z,15.20
2023-01-29T09:11:14.501Z,14.70
2023-01-29T09:13:42.750Z,15.30
2023-01-29T09:16:11.164Z,16.00
2023-01-29T09:18:41.666Z,14.90
2023-01-29T09:21:13.210Z,15.30
2023-01-29T09:23:47.484Z,14.20
2023-01-29T09:26:15.687Z,15.60
2023-01-29T09:28:44.020Z,16.40
2023-01-29T09:31:12.310Z,15.10
2023-01-29T09:33:43.430Z,15.70
2023-01-29T09:36:11.495Z,17.70
2023-01-29T09:38:39.784Z,17.00
2023-01-29T09:41:20.942Z,18.20
2023-01-29T09:43:52.813Z,15.70
2023-01-29T09:46:38.754Z,17.00
2023-01-29T09:49:12.827Z,18.30
2023-01-29T09:51:42.124Z,17.50
2023-01-29T09:54:48.915Z,17.40
2023-01-29T09:57:27.879Z,15.40
2023-01-29T09:59:56.041Z,15.00
2023-01-29T10:02:51.825Z,14.40
2023-01-29T10:05:28.667Z,14.30
2023-01-29T10:08:09.295Z,14.50
2023-01-29T10:11:09.882Z,13.20
2023-01-29T10:13:45.508Z,14.10
2023-01-29T10:16:55.847Z,13.80
2023-01-29T10:19:55.845Z,13.60
2023-01-29T10:22:48.877Z,12.40
2023-01-29T10:25:25.489Z,13.00
2023-01-29T10:28:00.620Z,11.50
2023-01-29T10:30:37.440Z,13.20
2023-01-29T10:33:07.690Z,13.20
2023-01-29T10:36:03.541Z,11.50
2023-01-29T10:38:40.436Z,11.90
2023-01-29T10:41:19.780Z,13.10
2023-01-29T10:44:00.729Z,13.80
2023-01-29T10:46:47.302Z,12.40
2023-01-29T10:49:42.207Z,13.50
2023-01-29T10:52:26.414Z,14.30
2023-01-29T10:55:25.044Z,9.10
2023-01-29T10:58:00.635Z,13.00
2023-01-29T11:00:38.660Z,12.90
2023-01-29T11:03:27.959Z,11.10
2023-01-29T11:06:12.027Z,11.80
2023-01-29T11:09:19.629Z,12.10
2023-01-29T11:14:47.810Z,11.60
2023-01-29T11:17:17.950Z,12.30
2023-01-29T11:19:47.858Z,12.20
2023-01-29T11:22:37.171Z,12.30
2023-01-29T11:25:10.590Z,11.60
2023-01-29T11:27:45.040Z,11.60
2023-01-29T11:30:32.262Z,14.00
2023-01-29T11:33:24.424Z,12.20
2023-01-29T11:35:57.771Z,12.80
2023-01-29T11:38:27.321Z,12.90
2023-01-29T11:41:22.370Z,11.50
2023-01-29T11:43:53.235Z,11.20
2023-01-29T11:46:21.488Z,10.50
2023-01-29T11:48:51.723Z,10.60
2023-01-29T11:51:25.217Z,11.40
2023-01-29T11:53:57.560Z,10.40
2023-01-29T11:56:35.053Z,10.40
2023-01-29T11:59:06.187Z,10.60
2023-01-29T12:01:37.004Z,10.70
2023-01-29T12:04:18.948Z,10.00
2023-01-29T12:06:49.197Z,10.60
2023-01-29T12:09:29.862Z,11.20
2023-01-29T12:12:16.540Z,10.40
2023-01-29T12:14:44.734Z,9.40
2023-01-29T12:17:18.227Z,10.30
2023-01-29T12:19:55.575Z,10.30
2023-01-29T12:23:06.751Z,11.10
2023-01-29T12:25:40.524Z,11.60
2023-01-29T12:28:42.919Z,12.00
2023-01-29T12:31:43.000Z,11.50
2023-01-29T12:34:54.829Z,10.00
2023-01-29T12:37:43.915Z,11.00
2023-01-29T12:40:21.035Z,9.70
2023-01-29T12:43:01.949Z,10.40
2023-01-29T12:45:33.495Z,10.10
2023-01-29T12:48:08.828Z,8.70
2023-01-29T12:50:48.718Z,10.30
2023-01-29T12:53:36.256Z,8.90
2023-01-29T12:56:28.472Z,8.80
2023-01-29T12:58:56.868Z,7.90
2023-01-29T13:01:31.524Z,8.40
2023-01-29T13:06:48.399Z,8.50
2023-01-29T13:09:27.080Z,8.70
2023-01-29T13:12:07.910Z,7.70
2023-01-29T13:14:41.599Z,8.70
2023-01-29T13:17:14.421Z,9.20
2023-01-29T13:19:50.812Z,8.10
2023-01-29T13:22:26.600Z,8.60
2023-01-29T13:25:04.309Z,8.40
2023-01-29T13:27:34.613Z,9.00
2023-01-29T13:30:03.418Z,7.80
2023-01-29T13:32:33.147Z,9.20
2023-01-29T13:35:03.804Z,9.10
2023-01-29T13:37:46.350Z,10.20
2023-01-29T13:40:29.379Z,8.80
2023-01-29T13:43:00.359Z,10.00
2023-01-29T13:45:42.123Z,10.20
2023-01-29T13:48:29.099Z,11.50
2023-01-29T13:50:57.836Z,13.20
2023-01-29T13:53:29.270Z,12.20
2023-01-29T13:56:21.049Z,10.40
2023-01-29T13:58:55.434Z,10.70
2023-01-29T14:04:21.932Z,8.40
2023-01-29T14:06:52.050Z,10.60
2023-01-29T14:09:36.723Z,10.50
2023-01-29T14:12:32.188Z,9.00
2023-01-29T14:15:04.466Z,9.40
2023-01-29T14:17:33.335Z,8.90
2023-01-29T14:20:04.177Z,10.00
2023-01-29T14:22:33.947Z,10.90
2023-01-29T14:25:04.891Z,10.30
2023-01-29T14:27:33.529Z,11.30
2023-01-29T14:30:03.890Z,10.20
2023-01-29T14:32:32.507Z,10.40
2023-01-29T14:35:05.527Z,10.10
2023-01-29T14:37:38.938Z,9.50
2023-01-29T14:40:20.799Z,9.50
2023-01-29T14:43:02.041Z,10.60
2023-01-29T14:45:39.025Z,9.10
2023-01-29T14:48:10.077Z,10.00
2023-01-29T14:50:41.193Z,10.50
2023-01-29T14:53:23.435Z,10.00
2023-01-29T14:56:10.536Z,10.10
2023-01-29T14:58:46.113Z,10.10
2023-01-29T15:01:23.680Z,10.80
2023-01-29T15:04:04.292Z,11.40
2023-01-29T15:06:34.917Z,11.70
2023-01-29T15:09:36.460Z,12.70
2023-01-29T15:12:33.679Z,12.60
2023-01-29T15:15:27.458Z,12.30
2023-01-29T15:18:06.278Z,11.20
2023-01-29T15:20:44.598Z,11.30
2023-01-29T15:23:29.553Z,12.30
2023-01-29T15:26:01.839Z,12.50
2023-01-29T15:28:31.784Z,13.10
2023-01-29T15:31:01.603Z,11.60
2023-01-29T15:36:23.233Z,11.30
2023-01-29T15:39:09.944Z,11.10
2023-01-29T15:41:38.564Z,10.50
2023-01-29T15:44:14.231Z,9.90
2023-01-29T15:46:53.974Z,12.10
2023-01-29T15:49:32.910Z,11.20
2023-01-29T15:52:05.881Z,12.20
2023-01-29T15:54:36.654Z,10.60
2023-01-29T15:57:05.624Z,11.50
2023-01-29T15:59:40.564Z,11.00
2023-01-29T16:02:40.591Z,10.40
2023-01-29T16:05:18.415Z,10.80
2023-01-29T16:07:50.926Z,10.50
2023-01-29T16:10:21.537Z,10.40
2023-01-29T16:12:53.166Z,10.80
2023-01-29T16:15:34.413Z,10.70
2023-01-29T16:18:05.077Z,10.50
2023-01-29T16:20:45.231Z,9.90
2023-01-29T16:23:22.522Z,9.20
2023-01-29T16:25:51.117Z,9.00
2023-01-29T16:28:19.164Z,9.40
2023-01-29T16:30:47.754Z,7.80
2023-01-29T16:33:17.216Z,7.80
2023-01-29T16:35:51.842Z,8.70
2023-01-29T16:38:31.251Z,9.10
2023-01-29T16:41:06.608Z,9.00
2023-01-29T16:43:42.003Z,8.80
2023-01-29T16:46:31.657Z,8.20
2023-01-29T16:48:59.839Z,9.70
2023-01-29T16:51:37.259Z,9.20
2023-01-29T16:54:12.392Z,8.00
2023-01-29T16:56:43.822Z,8.60
2023-01-29T16:59:21.929Z,8.70
2023-01-29T17:01:50.167Z,7.50
2023-01-29T17:04:18.696Z,7.60
2023-01-29T17:06:49.585Z,8.40
2023-01-29T17:09:23.041Z,7.70
2023-01-29T17:12:14.924Z,7.60
2023-01-29T17:15:04.831Z,7.40
2023-01-29T17:17:49.391Z,8.10
2023-01-29T17:20:18.010Z,8.50
2023-01-29T17:22:47.196Z,7.90
2023-01-29T17:25:17.625Z,7.70
2023-01-29T17:27:51.967Z,9.40
2023-01-29T17:33:29.663Z,8.80
2023-01-29T17:35:58.279Z,8.30
2023-01-29T17:38:26.918Z,7.40
2023-01-29T17:40:59.008Z,8.90
2023-01-29T17:43:31.060Z,8.50
2023-01-29T17:49:19.202Z,7.30
2023-01-29T17:51:58.490Z,7.80
2023-01-29T17:54:40.369Z,9.40
2023-01-29T17:57:09.740Z,7.70
2023-01-29T17:59:43.546Z,7.80
2023-01-29T18:02:29.748Z,6.60
2023-01-29T18:05:18.563Z,8.80
2023-01-29T18:07:52.303Z,7.90
2023-01-29T18:10:21.320Z,8.20
2023-01-29T18:12:49.823Z,7.90
2023-01-29T18:15:18.393Z,7.70
2023-01-29T18:17:48.519Z,7.10
2023-01-29T18:20:19.786Z,7.20
2023-01-29T18:22:48.402Z,7.70
2023-01-29T18:25:17.369Z,7.30
2023-01-29T18:27:47.779Z,7.00
2023-01-29T18:30:16.669Z,8.50
2023-01-29T18:32:45.381Z,8.10
2023-01-29T18:35:14.406Z,7.50
2023-01-29T18:37:43.479Z,7.90
2023-01-29T18:40:20.067Z,7.60
2023-01-29T18:42:49.418Z,7.80
2023-01-29T18:45:19.597Z,8.80
2023-01-29T18:47:48.811Z,8.90
2023-01-29T18:50:17.278Z,7.90
2023-01-29T18:52:45.980Z,8.30
2023-01-29T18:55:14.844Z,8.10
2023-01-29T18:58:28.755Z,8.40
2023-01-29T19:00:32.476Z,7.60
2023-01-29T19:03:00.924Z,8.70
2023-01-29T19:05:29.027Z,7.80
2023-01-29T19:07:57.510Z,8.40
2023-01-29T19:10:27.942Z,8.30
2023-01-29T19:13:02.343Z,7.60
2023-01-29T19:15:33.289Z,6.50
2023-01-29T19:18:01.761Z,6.70
2023-01-29T19:20:29.957Z,6.70
2023-01-29T19:22:58.247Z,6.30
2023-01-29T19:25:28.918Z,6.10
2023-01-29T19:27:56.993Z,6.50
2023-01-29T19:30:25.337Z,8.00
2023-01-29T19:32:53.585Z,6.80
2023-01-29T19:35:22.239Z,6.60
2023-01-29T19:37:50.403Z,6.30
2023-01-29T19:40:19.921Z,6.60
2023-01-29T19:42:48.573Z,6.90
2023-01-29T19:45:16.891Z,6.10
2023-01-29T19:48:04.913Z,5.90
2023-01-29T19:50:34.570Z,5.70
2023-01-29T19:53:02.807Z,6.50
2023-01-29T19:55:31.181Z,6.50
2023-01-29T19:57:59.486Z,6.70
2023-01-29T20:00:35.535Z,6.20
2023-01-29T20:03:04.991Z,6.50
2023-01-29T20:05:36.124Z,6.90
2023-01-29T20:08:04.395Z,6.80
2023-01-29T20:10:36.927Z,5.60
2023-01-29T20:13:06.182Z,5.60
2023-01-29T20:15:37.854Z,5.60
2023-01-29T20:18:11.917Z,6.10
2023-01-29T20:20:51.634Z,4.10
2023-01-29T20:23:37.744Z,5.00
2023-01-29T20:26:14.249Z,4.00
2023-01-29T20:28:51.512Z,5.40
2023-01-29T20:31:30.292Z,5.70
2023-01-29T20:34:03.590Z,4.80
2023-01-29T20:36:40.205Z,5.60
2023-01-29T20:39:18.240Z,5.50
2023-01-29T20:41:57.496Z,5.60
2023-01-29T20:44:26.030Z,5.50
2023-01-29T20:46:54.175Z,6.00
2023-01-29T20:49:22.309Z,6.00
2023-01-29T20:51:50.608Z,6.60
2023-01-29T20:54:18.789Z,6.00
2023-01-29T20:56:50.223Z,5.50
2023-01-29T20:59:19.230Z,5.90
2023-01-29T21:01:47.903Z,5.90
2023-01-29T21:04:16.689Z,6.30
2023-01-29T21:06:44.867Z,6.00
2023-01-29T21:09:14.457Z,6.30
2023-01-29T21:11:45.011Z,6.20
2023-01-29T21:14:14.234Z,6.80
2023-01-29T21:16:42.592Z,6.90
2023-01-29T21:19:13.211Z,6.80
2023-01-29T21:21:41.691Z,5.90
2023-01-29T21:24:13.087Z,7.00
2023-01-29T21:26:41.332Z,6.60
2023-01-29T21:29:11.145Z,6.50
2023-01-29T21:31:39.413Z,6.20
2023-01-29T21:34:08.089Z,6.60
2023-01-29T21:36:36.840Z,6.80
2023-01-29T21:39:16.699Z,6.30
2023-01-29T21:42:04.123Z,6.50
2023-01-29T21:44:33.675Z,6.00
2023-01-29T21:47:12.360Z,6.90
2023-01-29T21:49:41.879Z,6.50
2023-01-29T21:52:11.532Z,6.60
2023-01-29T21:54:40.855Z,6.30
2023-01-29T21:57:12.498Z,6.70
2023-01-29T21:59:40.684Z,7.30
2023-01-29T22:02:17.827Z,7.00
2023-01-29T22:04:46.515Z,7.40
2023-01-29T22:07:14.846Z,7.10
2023-01-29T22:09:42.977Z,7.10
2023-01-29T22:12:11.553Z,5.90
2023-01-29T22:14:42.015Z,5.90
2023-01-29T22:17:10.824Z,6.20
2023-01-29T22:19:39.022Z,5.20
2023-01-29T22:22:07.942Z,5.00
2023-01-29T22:24:36.442Z,4.90
2023-01-29T22:27:04.720Z,5.30
2023-01-29T22:29:33.197Z,4.80
2023-01-29T22:32:01.346Z,5.10
2023-01-29T22:34:30.006Z,5.30
2023-01-29T22:36:58.443Z,4.90
2023-01-29T22:39:26.795Z,5.60
2023-01-29T22:41:54.912Z,5.20
2023-01-29T22:44:23.627Z,4.80
2023-01-29T22:46:52.032Z,5.20
2023-01-29T22:49:20.135Z,4.80
2023-01-29T22:51:48.293Z,4.90
2023-01-29T22:54:16.487Z,5.00
2023-01-29T22:56:44.884Z,4.90
2023-01-29T22:59:12.939Z,3.90
2023-01-29T23:01:41.027Z,4.60
2023-01-29T23:04:12.097Z,4.50
2023-01-29T23:06:40.178Z,3.90
2023-01-29T23:09:08.341Z,4.10
2023-01-29T23:11:36.798Z,3.80
2023-01-29T23:14:07.358Z,4.30
2023-01-29T23:16:35.811Z,4.70
2023-01-29T23:19:04.348Z,3.70
2023-01-29T23:21:33.364Z,4.50
2023-01-29T23:24:01.664Z,3.80
2023-01-29T23:26:49.443Z,5.00
2023-01-29T23:29:17.643Z,5.20
2023-01-29T23:31:46.045Z,5.70
2023-01-29T23:34:14.478Z,7.60
2023-01-29T23:36:42.913Z,6.10
2023-01-29T23:39:11.044Z,5.40
2023-01-29T23:41:39.555Z,5.50
2023-01-29T23:44:09.516Z,6.10
2023-01-29T23:46:37.901Z,6.10
2023-01-29T23:49:06.386Z,5.50
2023-01-29T23:51:38.066Z,5.20
2023-01-29T23:54:06.468Z,5.10
2023-01-29T23:56:34.743Z,4.70
2023-01-29T23:59:03.439Z,4.90
